createdAt,value
2017-08-19T00:02:10.164Z,16.10
2017-08-19T00:04:37.992Z,16.06
2017-08-19T00:07:05.793Z,16.04
2017-08-19T00:09:33.641Z,15.97
2017-08-19T00:12:01.449Z,15.95
2017-08-19T00:14:29.272Z,15.92
2017-08-19T00:16:57.064Z,15.88
2017-08-19T00:19:24.853Z,15.89
2017-08-19T00:21:52.690Z,15.87
2017-08-19T00:24:20.462Z,15.86
2017-08-19T00:26:48.294Z,15.83
2017-08-19T00:29:16.112Z,15.83
2017-08-19T00:31:43.949Z,15.81
2017-08-19T00:34:11.708Z,15.81
2017-08-19T00:36:39.547Z,15.81
2017-08-19T00:39:07.325Z,15.84
2017-08-19T00:41:35.176Z,15.86
2017-08-19T00:44:03.015Z,15.89
2017-08-19T00:46:30.864Z,15.91
2017-08-19T00:48:58.656Z,15.95
2017-08-19T00:51:26.465Z,15.98
2017-08-19T00:53:54.263Z,15.99
2017-08-19T00:56:22.060Z,16.00
2017-08-19T00:58:49.918Z,16.03
2017-08-19T01:01:17.706Z,16.04
2017-08-19T01:03:45.561Z,16.06
2017-08-19T01:06:13.423Z,16.07
2017-08-19T01:08:41.277Z,16.07
2017-08-19T01:11:09.097Z,16.06
2017-08-19T01:13:36.918Z,16.08
2017-08-19T01:16:04.708Z,16.10
2017-08-19T01:18:32.553Z,16.10
2017-08-19T01:21:00.345Z,16.12
2017-08-19T01:23:28.214Z,16.12
2017-08-19T01:26:07.589Z,16.11
2017-08-19T01:28:35.456Z,16.05
2017-08-19T01:31:03.171Z,16.00
2017-08-19T01:33:31.011Z,15.94
2017-08-19T01:35:58.789Z,15.85
2017-08-19T01:38:26.577Z,15.75
2017-08-19T01:40:54.385Z,15.66
2017-08-19T01:43:22.148Z,15.59
2017-08-19T01:45:49.993Z,15.55
2017-08-19T01:48:17.774Z,15.52
2017-08-19T01:50:45.605Z,15.52
2017-08-19T01:53:13.377Z,15.50
2017-08-19T01:55:41.197Z,15.49
2017-08-19T01:58:08.962Z,15.49
2017-08-19T02:00:36.780Z,15.51
2017-08-19T02:03:04.565Z,15.55
2017-08-19T02:05:32.393Z,15.60
2017-08-19T02:08:00.179Z,15.60
2017-08-19T02:10:28.009Z,15.59
2017-08-19T02:12:55.812Z,15.59
2017-08-19T02:15:23.604Z,15.51
2017-08-19T02:17:51.430Z,15.42
2017-08-19T02:20:19.221Z,15.36
2017-08-19T02:22:47.048Z,15.29
2017-08-19T02:25:14.824Z,15.23
2017-08-19T02:27:42.683Z,15.20
2017-08-19T02:30:10.423Z,15.12
2017-08-19T02:32:38.246Z,15.12
2017-08-19T02:35:06.012Z,15.07
2017-08-19T02:37:33.842Z,15.02
2017-08-19T02:40:01.615Z,14.99
2017-08-19T02:42:29.462Z,14.95
2017-08-19T02:44:57.256Z,14.89
2017-08-19T02:47:25.053Z,14.85
2017-08-19T02:49:52.892Z,14.87
2017-08-19T02:52:20.677Z,14.84
2017-08-19T02:54:48.656Z,14.82
2017-08-19T02:57:16.447Z,14.81
2017-08-19T02:59:44.271Z,14.78
2017-08-19T03:02:12.089Z,14.71
2017-08-19T03:04:39.901Z,14.68
2017-08-19T03:07:08.448Z,14.67
2017-08-19T03:09:36.275Z,14.63
2017-08-19T03:12:04.080Z,14.61
2017-08-19T03:14:31.919Z,14.56
2017-08-19T03:16:59.715Z,14.53
2017-08-19T03:19:27.496Z,14.54
2017-08-19T03:21:55.335Z,14.48
2017-08-19T03:24:23.102Z,14.44
2017-08-19T03:26:50.929Z,14.40
2017-08-19T03:29:18.770Z,14.36
2017-08-19T03:31:46.587Z,14.36
2017-08-19T03:34:14.360Z,14.34
2017-08-19T03:36:42.198Z,14.34
2017-08-19T03:39:09.988Z,14.33
2017-08-19T03:41:37.813Z,14.31
2017-08-19T03:44:05.536Z,14.30
2017-08-19T03:46:34.319Z,14.29
2017-08-19T03:49:02.126Z,14.25
2017-08-19T03:51:29.911Z,14.22
2017-08-19T03:53:57.666Z,14.24
2017-08-19T03:56:25.433Z,14.19
2017-08-19T03:58:53.179Z,14.20
2017-08-19T04:01:20.971Z,14.17
2017-08-19T04:03:48.805Z,14.21
2017-08-19T04:06:16.597Z,14.23
2017-08-19T04:08:44.365Z,14.28
2017-08-19T04:11:12.177Z,14.32
2017-08-19T04:13:39.949Z,14.38
2017-08-19T04:16:07.753Z,14.40
2017-08-19T04:18:35.520Z,14.43
2017-08-19T04:21:03.339Z,14.40
2017-08-19T04:23:31.112Z,14.41
2017-08-19T04:25:58.939Z,14.41
2017-08-19T04:28:26.767Z,14.37
2017-08-19T04:30:54.595Z,14.34
2017-08-19T04:33:22.360Z,14.30
2017-08-19T04:35:50.075Z,14.27
2017-08-19T04:38:17.908Z,14.22
2017-08-19T04:40:45.724Z,14.18
2017-08-19T04:43:13.561Z,14.14
2017-08-19T04:45:41.445Z,14.08
2017-08-19T04:48:09.289Z,14.06
2017-08-19T04:50:36.988Z,14.06
2017-08-19T04:53:04.726Z,14.02
2017-08-19T04:55:32.497Z,14.02
2017-08-19T04:58:00.305Z,14.03
2017-08-19T05:00:28.122Z,14.02
2017-08-19T05:02:55.995Z,14.04
2017-08-19T05:05:23.683Z,14.05
2017-08-19T05:07:51.512Z,14.08
2017-08-19T05:10:19.302Z,14.16
2017-08-19T05:12:47.116Z,14.29
2017-08-19T05:15:14.942Z,14.48
2017-08-19T05:17:42.758Z,14.84
2017-08-19T05:20:10.672Z,15.06
2017-08-19T05:22:38.457Z,15.15
2017-08-19T05:25:06.293Z,15.23
2017-08-19T05:27:34.077Z,15.40
2017-08-19T05:30:01.945Z,15.51
2017-08-19T05:32:29.720Z,15.56
2017-08-19T05:34:57.543Z,15.29
2017-08-19T05:37:25.334Z,15.09
2017-08-19T05:39:53.144Z,14.89
2017-08-19T05:42:20.913Z,14.89
2017-08-19T05:44:48.732Z,14.90
2017-08-19T05:47:16.504Z,14.88
2017-08-19T05:49:44.313Z,14.87
2017-08-19T05:52:12.141Z,14.84
2017-08-19T05:54:39.935Z,14.85
2017-08-19T05:57:07.756Z,14.88
2017-08-19T05:59:35.520Z,14.99
2017-08-19T06:02:03.348Z,15.11
2017-08-19T06:04:31.184Z,15.19
2017-08-19T06:06:59.000Z,15.22
2017-08-19T06:09:26.788Z,15.21
2017-08-19T06:11:54.604Z,15.20
2017-08-19T06:14:22.366Z,15.23
2017-08-19T06:16:50.136Z,15.26
2017-08-19T06:19:17.969Z,15.22
2017-08-19T06:21:45.752Z,15.24
2017-08-19T06:24:13.583Z,15.25
2017-08-19T06:26:41.380Z,15.20
2017-08-19T06:29:09.271Z,15.26
2017-08-19T06:31:37.053Z,15.32
2017-08-19T06:34:04.874Z,15.35
2017-08-19T06:36:32.660Z,15.45
2017-08-19T06:39:00.487Z,15.52
2017-08-19T06:41:28.290Z,15.57
2017-08-19T06:43:56.104Z,15.69
2017-08-19T06:46:23.877Z,15.76
2017-08-19T06:48:51.715Z,15.85
2017-08-19T06:51:19.520Z,15.90
2017-08-19T06:53:47.379Z,15.99
2017-08-19T06:56:15.082Z,16.09
2017-08-19T06:58:42.787Z,16.09
2017-08-19T07:01:10.572Z,16.13
2017-08-19T07:03:38.263Z,16.29
2017-08-19T07:06:06.005Z,16.37
2017-08-19T07:08:33.706Z,16.53
2017-08-19T07:11:01.477Z,16.62
2017-08-19T07:13:29.176Z,16.67
2017-08-19T07:15:56.908Z,16.80
2017-08-19T07:18:24.597Z,16.85
2017-08-19T07:20:52.356Z,16.90
2017-08-19T07:23:20.044Z,17.01
2017-08-19T07:25:47.765Z,17.12
2017-08-19T07:28:15.517Z,17.26
2017-08-19T07:30:43.232Z,17.45
2017-08-19T07:33:11.007Z,17.56
2017-08-19T07:35:38.712Z,17.70
2017-08-19T07:38:06.461Z,17.97
2017-08-19T07:40:34.176Z,18.20
2017-08-19T07:43:01.913Z,18.30
2017-08-19T07:45:29.599Z,18.34
2017-08-19T07:47:57.337Z,18.39
2017-08-19T07:50:25.042Z,18.64
2017-08-19T07:52:52.732Z,18.71
2017-08-19T07:55:20.473Z,18.41
2017-08-19T07:57:48.182Z,18.19
2017-08-19T08:00:15.921Z,18.35
2017-08-19T08:02:43.654Z,18.66
2017-08-19T08:05:11.412Z,18.87
2017-08-19T08:07:39.115Z,18.61
2017-08-19T08:10:06.861Z,18.23
2017-08-19T08:12:34.551Z,18.18
2017-08-19T08:15:02.280Z,18.65
2017-08-19T08:17:30.022Z,19.03
2017-08-19T08:19:57.773Z,19.56
2017-08-19T08:22:25.464Z,19.89
2017-08-19T08:24:53.145Z,19.40
2017-08-19T08:27:20.899Z,19.23
2017-08-19T08:29:48.652Z,18.94
2017-08-19T08:32:16.390Z,18.77
2017-08-19T08:34:44.093Z,18.95
2017-08-19T08:37:11.845Z,19.04
2017-08-19T08:39:39.567Z,18.92
2017-08-19T08:42:07.318Z,19.11
2017-08-19T08:44:35.013Z,19.07
2017-08-19T08:47:02.766Z,18.98
2017-08-19T08:49:30.471Z,19.00
2017-08-19T08:51:58.224Z,18.68
2017-08-19T08:54:25.920Z,18.74
2017-08-19T08:56:53.623Z,18.57
2017-08-19T08:59:21.402Z,18.51
2017-08-19T09:01:49.132Z,18.58
2017-08-19T09:04:16.885Z,18.89
2017-08-19T09:06:44.587Z,19.27
2017-08-19T09:09:12.334Z,19.70
2017-08-19T09:11:40.020Z,19.68
2017-08-19T09:14:07.755Z,19.57
2017-08-19T09:16:35.463Z,19.69
2017-08-19T09:19:03.326Z,20.11
2017-08-19T09:21:31.153Z,20.51
2017-08-19T09:23:58.857Z,20.79
2017-08-19T09:26:26.697Z,20.39
2017-08-19T09:28:54.418Z,20.06
2017-08-19T09:31:22.242Z,20.11
2017-08-19T09:33:50.035Z,20.18
2017-08-19T09:36:17.890Z,19.75
2017-08-19T09:38:45.672Z,19.85
2017-08-19T09:41:13.480Z,19.87
2017-08-19T09:43:41.241Z,19.72
2017-08-19T09:46:09.096Z,19.86
2017-08-19T09:48:36.886Z,20.06
2017-08-19T09:51:04.667Z,20.55
2017-08-19T09:53:32.501Z,20.93
2017-08-19T09:56:00.205Z,21.22
2017-08-19T09:58:28.981Z,21.42
2017-08-19T10:00:56.779Z,21.25
2017-08-19T10:03:24.627Z,20.43
2017-08-19T10:05:52.448Z,20.02
2017-08-19T10:08:32.104Z,19.76
2017-08-19T10:11:11.584Z,19.58
2017-08-19T10:13:39.485Z,19.77
2017-08-19T10:16:07.257Z,20.03
2017-08-19T10:18:35.162Z,20.46
2017-08-19T10:21:03.009Z,21.07
2017-08-19T10:23:30.915Z,21.24
2017-08-19T10:25:58.745Z,21.32
2017-08-19T10:28:26.471Z,20.98
2017-08-19T10:30:54.377Z,20.60
2017-08-19T10:33:22.227Z,20.41
2017-08-19T10:35:50.105Z,20.41
2017-08-19T10:38:18.015Z,20.71
2017-08-19T10:40:45.850Z,20.75
2017-08-19T10:43:13.550Z,20.92
2017-08-19T10:45:41.307Z,21.03
2017-08-19T10:48:09.026Z,21.08
2017-08-19T10:50:36.949Z,21.45
2017-08-19T10:53:04.646Z,21.39
2017-08-19T10:55:32.485Z,20.79
2017-08-19T10:58:00.412Z,20.89
2017-08-19T11:00:28.268Z,21.01
2017-08-19T11:02:56.252Z,20.87
2017-08-19T11:05:24.137Z,20.52
2017-08-19T11:07:52.069Z,20.35
2017-08-19T11:10:19.853Z,20.46
2017-08-19T11:12:47.731Z,20.60
2017-08-19T11:15:15.598Z,20.71
2017-08-19T11:17:43.513Z,20.85
2017-08-19T11:20:11.345Z,21.06
2017-08-19T11:22:39.309Z,21.19
2017-08-19T11:25:06.996Z,21.13
2017-08-19T11:27:34.837Z,20.96
2017-08-19T11:30:02.797Z,20.75
2017-08-19T11:32:30.708Z,20.45
2017-08-19T11:34:58.482Z,20.14
2017-08-19T11:37:26.369Z,19.93
2017-08-19T11:39:54.324Z,19.68
2017-08-19T11:42:22.148Z,19.45
2017-08-19T11:44:50.025Z,19.37
2017-08-19T11:47:17.928Z,19.30
2017-08-19T11:49:45.838Z,19.26
2017-08-19T11:52:13.691Z,19.30
2017-08-19T11:54:41.671Z,19.36
2017-08-19T11:57:09.465Z,19.42
2017-08-19T11:59:37.267Z,19.44
2017-08-19T12:02:05.140Z,19.54
2017-08-19T12:04:32.934Z,19.81
2017-08-19T12:07:00.780Z,19.98
2017-08-19T12:09:28.566Z,19.86
2017-08-19T12:11:56.434Z,19.67
2017-08-19T12:14:24.231Z,19.45
2017-08-19T12:16:52.164Z,19.28
2017-08-19T12:19:19.933Z,19.03
2017-08-19T12:21:47.769Z,18.97
2017-08-19T12:24:15.578Z,19.51
2017-08-19T12:26:43.398Z,19.86
2017-08-19T12:29:11.260Z,20.03
2017-08-19T12:31:39.058Z,20.48
2017-08-19T12:34:06.846Z,21.12
2017-08-19T12:36:34.640Z,21.36
2017-08-19T12:39:02.544Z,21.16
2017-08-19T12:41:30.328Z,21.18
2017-08-19T12:43:58.162Z,21.10
2017-08-19T12:46:25.942Z,21.08
2017-08-19T12:48:53.745Z,20.88
2017-08-19T12:51:21.538Z,20.65
2017-08-19T12:53:49.401Z,20.25
2017-08-19T12:56:17.224Z,19.90
2017-08-19T12:58:47.285Z,19.93
2017-08-19T13:01:15.328Z,20.03
2017-08-19T13:03:43.968Z,19.97
2017-08-19T13:06:13.374Z,19.86
2017-08-19T13:08:43.374Z,19.81
2017-08-19T13:11:14.699Z,19.78
2017-08-19T13:13:43.096Z,19.79
2017-08-19T13:16:10.909Z,19.99
2017-08-19T13:18:40.499Z,20.69
2017-08-19T13:21:09.436Z,21.40
2017-08-19T13:23:38.644Z,21.24
2017-08-19T13:26:07.364Z,20.79
2017-08-19T13:28:36.781Z,20.56
2017-08-19T13:31:07.378Z,20.92
2017-08-19T13:33:35.994Z,21.40
2017-08-19T13:36:07.259Z,21.78
2017-08-19T13:38:36.052Z,21.71
2017-08-19T13:41:05.340Z,21.79
2017-08-19T13:43:33.906Z,22.03
2017-08-19T13:46:02.904Z,22.18
2017-08-19T13:48:32.220Z,22.09
2017-08-19T13:51:01.432Z,22.05
2017-08-19T13:53:29.736Z,21.75
2017-08-19T13:55:58.113Z,21.16
2017-08-19T13:58:29.237Z,20.93
2017-08-19T14:00:58.594Z,20.79
2017-08-19T14:03:28.314Z,20.88
2017-08-19T14:05:56.153Z,21.46
2017-08-19T14:08:25.438Z,21.40
2017-08-19T14:10:53.833Z,21.08
2017-08-19T14:13:22.828Z,21.03
2017-08-19T14:15:52.731Z,21.19
2017-08-19T14:18:20.994Z,21.46
2017-08-19T14:20:48.830Z,21.81
2017-08-19T14:23:17.516Z,21.86
2017-08-19T14:28:22.330Z,21.59
2017-08-19T14:33:25.977Z,21.67
2017-08-19T14:35:53.877Z,21.38
2017-08-19T14:38:25.133Z,21.09
2017-08-19T14:40:55.277Z,20.81
2017-08-19T14:43:24.017Z,20.77
2017-08-19T14:45:53.299Z,20.47
2017-08-19T14:48:21.239Z,20.76
2017-08-19T14:50:49.076Z,21.29
2017-08-19T14:53:19.509Z,21.71
2017-08-19T14:55:50.221Z,21.34
2017-08-19T14:58:19.786Z,21.14
2017-08-19T15:00:47.875Z,20.91
2017-08-19T15:03:15.803Z,20.80
2017-08-19T15:05:44.873Z,20.72
2017-08-19T15:08:12.572Z,20.61
2017-08-19T15:10:40.889Z,20.56
2017-08-19T15:13:10.600Z,20.55
2017-08-19T15:15:39.737Z,20.53
2017-08-19T15:18:10.518Z,20.54
2017-08-19T15:20:40.658Z,20.80
2017-08-19T15:23:09.451Z,21.01
2017-08-19T15:25:37.424Z,21.09
2017-08-19T15:28:06.612Z,21.15
2017-08-19T15:30:38.646Z,20.80
2017-08-19T15:33:08.195Z,20.44
2017-08-19T15:35:37.604Z,20.08
2017-08-19T15:38:06.076Z,19.95
2017-08-19T15:40:34.393Z,19.91
2017-08-19T15:43:04.072Z,19.99
2017-08-19T15:45:34.087Z,20.08
2017-08-19T15:48:01.957Z,20.15
2017-08-19T15:50:30.271Z,20.10
2017-08-19T15:53:00.917Z,20.04
2017-08-19T15:55:30.125Z,19.95
2017-08-19T15:57:59.369Z,19.86
2017-08-19T16:00:29.449Z,19.82
2017-08-19T16:02:59.633Z,19.78
2017-08-19T16:05:29.450Z,19.82
2017-08-19T16:07:57.394Z,19.81
2017-08-19T16:10:25.776Z,19.85
2017-08-19T16:12:56.728Z,19.84
2017-08-19T16:15:26.265Z,19.88
2017-08-19T16:17:55.636Z,20.05
2017-08-19T16:20:24.465Z,20.36
2017-08-19T16:22:53.513Z,20.65
2017-08-19T16:25:22.462Z,20.86
2017-08-19T16:27:54.293Z,20.79
2017-08-19T16:30:22.186Z,20.62
2017-08-19T16:32:51.589Z,20.36
2017-08-19T16:35:19.776Z,20.19
2017-08-19T16:37:49.188Z,20.03
2017-08-19T16:40:19.216Z,19.76
2017-08-19T16:42:48.389Z,19.73
2017-08-19T16:45:17.601Z,19.55
2017-08-19T16:47:46.779Z,19.46
2017-08-19T16:50:15.548Z,19.35
2017-08-19T16:52:43.405Z,19.36
2017-08-19T16:55:13.256Z,19.39
2017-08-19T16:57:42.529Z,19.36
2017-08-19T17:00:12.950Z,19.36
2017-08-19T17:02:41.664Z,19.37
2017-08-19T17:05:09.548Z,19.28
2017-08-19T17:07:38.549Z,19.27
2017-08-19T17:10:06.554Z,19.21
2017-08-19T17:12:38.544Z,19.14
2017-08-19T17:15:08.879Z,18.92
2017-08-19T17:17:37.663Z,18.60
2017-08-19T17:20:05.971Z,18.35
2017-08-19T17:22:35.710Z,18.24
2017-08-19T17:25:04.480Z,18.11
2017-08-19T17:27:33.407Z,18.11
2017-08-19T17:30:02.699Z,18.15
2017-08-19T17:32:30.990Z,18.17
2017-08-19T17:35:01.770Z,18.12
2017-08-19T17:37:31.446Z,18.15
2017-08-19T17:40:00.235Z,18.15
2017-08-19T17:42:32.079Z,18.11
2017-08-19T17:45:00.985Z,17.98
2017-08-19T17:47:30.351Z,17.88
2017-08-19T17:50:00.552Z,17.78
2017-08-19T17:52:31.733Z,17.67
2017-08-19T17:55:02.473Z,17.55
2017-08-19T17:57:31.464Z,17.42
2017-08-19T18:00:00.511Z,17.33
2017-08-19T18:02:29.310Z,17.23
2017-08-19T18:05:02.009Z,17.12
2017-08-19T18:07:32.320Z,17.01
2017-08-19T18:10:01.662Z,16.88
2017-08-19T18:12:33.437Z,16.83
2017-08-19T18:15:02.605Z,16.80
2017-08-19T18:17:31.745Z,16.75
2017-08-19T18:20:00.510Z,16.70
2017-08-19T18:22:28.768Z,16.65
2017-08-19T18:24:56.536Z,16.55
2017-08-19T18:27:24.835Z,16.46
2017-08-19T18:29:57.215Z,16.35
2017-08-19T18:32:28.025Z,16.21
2017-08-19T18:34:56.866Z,16.05
2017-08-19T18:37:30.320Z,15.86
2017-08-19T18:40:01.527Z,15.74
2017-08-19T18:42:31.897Z,15.71
2017-08-19T18:45:02.341Z,15.71
2017-08-19T18:47:31.202Z,15.61
2017-08-19T18:50:01.675Z,15.50
2017-08-19T18:52:30.732Z,15.39
2017-08-19T18:54:59.434Z,15.32
2017-08-19T18:57:27.901Z,15.27
2017-08-19T18:59:56.963Z,15.22
2017-08-19T19:02:27.374Z,15.21
2017-08-19T19:05:01.074Z,15.21
2017-08-19T19:07:30.436Z,15.21
2017-08-19T19:09:59.797Z,15.22
2017-08-19T19:12:28.425Z,15.17
2017-08-19T19:14:57.474Z,15.09
2017-08-19T19:17:28.533Z,15.18
2017-08-19T19:19:58.040Z,15.32
2017-08-19T19:22:26.893Z,15.45
2017-08-19T19:24:55.657Z,15.54
2017-08-19T19:27:26.245Z,15.63
2017-08-19T19:29:56.954Z,15.70
2017-08-19T19:32:27.258Z,15.70
2017-08-19T19:34:56.689Z,15.75
2017-08-19T19:37:25.444Z,15.79
2017-08-19T19:39:55.960Z,15.83
2017-08-19T19:42:24.811Z,15.77
2017-08-19T19:44:53.150Z,15.57
2017-08-19T19:47:21.653Z,15.39
2017-08-19T19:49:50.289Z,15.25
2017-08-19T19:52:20.188Z,15.13
2017-08-19T19:54:50.432Z,15.08
2017-08-19T19:57:21.073Z,15.05
2017-08-19T19:59:49.632Z,14.99
2017-08-19T20:02:18.815Z,14.92
2017-08-19T20:04:47.994Z,14.89
2017-08-19T20:07:18.905Z,14.83
2017-08-19T20:09:48.078Z,14.78
2017-08-19T20:12:18.236Z,14.72
2017-08-19T20:14:50.665Z,14.65
2017-08-19T20:17:20.697Z,14.57
2017-08-19T20:19:49.949Z,14.50
2017-08-19T20:22:18.357Z,14.42
2017-08-19T20:24:46.637Z,14.29
2017-08-19T20:27:16.266Z,14.16
2017-08-19T20:29:45.916Z,14.05
2017-08-19T20:32:16.192Z,13.98
2017-08-19T20:34:47.655Z,13.90
2017-08-19T20:37:16.377Z,13.83
2017-08-19T20:39:45.358Z,13.79
2017-08-19T20:42:13.540Z,13.73
2017-08-19T20:44:42.603Z,13.67
2017-08-19T20:47:10.488Z,13.62
2017-08-19T20:49:41.064Z,13.55
2017-08-19T20:52:12.262Z,13.54
2017-08-19T20:54:41.464Z,13.53
2017-08-19T20:57:12.500Z,13.50
2017-08-19T20:59:41.279Z,13.50
2017-08-19T21:02:11.877Z,13.44
2017-08-19T21:04:42.769Z,13.40
2017-08-19T21:07:14.499Z,13.35
2017-08-19T21:09:42.677Z,13.32
2017-08-19T21:12:11.099Z,13.29
2017-08-19T21:14:40.401Z,13.26
2017-08-19T21:17:09.017Z,13.23
2017-08-19T21:19:38.292Z,13.20
2017-08-19T21:22:06.935Z,13.16
2017-08-19T21:24:35.677Z,13.13
2017-08-19T21:27:05.129Z,13.09
2017-08-19T21:29:36.120Z,13.06
2017-08-19T21:32:05.029Z,13.03
2017-08-19T21:34:37.850Z,12.97
2017-08-19T21:37:05.692Z,12.94
2017-08-19T21:39:34.304Z,12.93
2017-08-19T21:42:03.386Z,12.94
2017-08-19T21:44:33.067Z,12.92
2017-08-19T21:47:03.849Z,12.91
2017-08-19T21:49:34.617Z,12.88
2017-08-19T21:52:04.990Z,12.85
2017-08-19T21:54:33.740Z,12.85
2017-08-19T21:57:03.329Z,12.82
2017-08-19T21:59:34.450Z,12.83
2017-08-19T22:02:02.340Z,12.84
2017-08-19T22:04:31.889Z,12.85
2017-08-19T22:07:00.921Z,12.86
2017-08-19T22:09:32.672Z,12.88
2017-08-19T22:12:04.306Z,12.85
2017-08-19T22:14:33.064Z,12.83
2017-08-19T22:17:02.084Z,12.82
2017-08-19T22:19:30.792Z,12.82
2017-08-19T22:21:59.652Z,12.79
2017-08-19T22:24:30.198Z,12.75
2017-08-19T22:26:58.819Z,12.70
2017-08-19T22:29:30.177Z,12.65
2017-08-19T22:31:59.600Z,12.61
2017-08-19T22:34:31.007Z,12.56
2017-08-19T22:37:00.513Z,12.55
2017-08-19T22:39:30.961Z,12.58
2017-08-19T22:42:01.073Z,12.58
2017-08-19T22:44:28.951Z,12.59
2017-08-19T22:46:57.678Z,12.60
2017-08-19T22:49:25.554Z,12.61
2017-08-19T22:51:55.522Z,12.60
2017-08-19T22:54:24.196Z,12.58
2017-08-19T22:56:53.003Z,12.57
2017-08-19T22:59:22.485Z,12.52
2017-08-19T23:01:52.840Z,12.49
2017-08-19T23:04:24.166Z,12.45
2017-08-19T23:06:53.749Z,12.44
2017-08-19T23:09:24.661Z,12.44
2017-08-19T23:11:53.550Z,12.46
2017-08-19T23:14:23.672Z,12.43
2017-08-19T23:16:53.061Z,12.40
2017-08-19T23:19:21.766Z,12.36
2017-08-19T23:21:51.427Z,12.35
2017-08-19T23:24:21.452Z,12.35
2017-08-19T23:26:50.686Z,12.35
2017-08-19T23:29:19.126Z,12.30
2017-08-19T23:31:47.374Z,12.26
2017-08-19T23:34:15.861Z,12.19
2017-08-19T23:36:48.169Z,12.14
2017-08-19T23:39:18.804Z,12.05
2017-08-19T23:41:50.531Z,11.99
2017-08-19T23:44:18.456Z,11.98
2017-08-19T23:46:46.949Z,11.99
2017-08-19T23:49:15.341Z,12.00
2017-08-19T23:51:43.248Z,12.01
2017-08-19T23:54:13.956Z,12.00
2017-08-19T23:56:45.985Z,11.93
2017-08-19T23:59:13.815Z,11.91
